createdAt,value
2019-05-10T00:00:28.140Z,69.42
2019-05-10T00:05:50.705Z,69.87
2019-05-10T00:11:05.974Z,67.75
2019-05-10T00:16:12.504Z,68.97
2019-05-10T00:21:17.082Z,78.92
2019-05-10T00:26:22.852Z,80.42
2019-05-10T00:31:27.465Z,73.67
2019-05-10T00:36:32.121Z,76.60
2019-05-10T00:41:36.793Z,68.25
2019-05-10T00:46:41.535Z,80.15
2019-05-10T00:51:46.098Z,78.07
2019-05-10T00:56:50.747Z,83.27
2019-05-10T01:01:55.466Z,69.82
2019-05-10T01:07:00.209Z,75.32
2019-05-10T01:12:04.950Z,77.17
2019-05-10T01:17:09.501Z,89.03
2019-05-10T01:22:14.208Z,82.67
2019-05-10T01:27:18.823Z,78.02
2019-05-10T01:32:23.540Z,78.07
2019-05-10T01:37:28.192Z,72.55
2019-05-10T01:42:32.838Z,68.65
2019-05-10T01:47:37.413Z,65.17
2019-05-10T01:52:41.998Z,66.33
2019-05-10T01:57:46.562Z,72.10
2019-05-10T02:02:51.198Z,62.00
2019-05-10T02:07:55.763Z,61.53
2019-05-10T02:13:00.242Z,58.00
2019-05-10T02:18:05.347Z,49.98
2019-05-10T02:23:10.019Z,56.08
2019-05-10T02:28:14.594Z,59.03
2019-05-10T02:33:19.109Z,59.40
2019-05-10T02:38:23.671Z,62.93
2019-05-10T02:43:28.395Z,74.87
2019-05-10T02:48:33.091Z,64.30
2019-05-10T02:53:37.594Z,66.97
2019-05-10T02:58:44.043Z,80.62
2019-05-10T03:03:50.228Z,75.35
2019-05-10T03:08:55.002Z,80.83
2019-05-10T03:14:02.521Z,78.70
2019-05-10T03:19:08.832Z,85.42
2019-05-10T03:24:13.743Z,80.03
2019-05-10T03:29:18.468Z,69.82
2019-05-10T03:34:23.059Z,70.62
2019-05-10T03:39:27.980Z,69.72
2019-05-10T03:44:32.593Z,70.57
2019-05-10T03:49:37.314Z,69.20
2019-05-10T03:54:41.993Z,70.62
2019-05-10T03:59:46.562Z,78.65
2019-05-10T04:04:51.178Z,66.62
2019-05-10T04:09:55.790Z,55.73
2019-05-10T04:15:00.411Z,51.58
2019-05-10T04:20:09.668Z,55.08
2019-05-10T04:25:14.582Z,51.23
2019-05-10T04:30:20.290Z,43.75
2019-05-10T04:35:24.877Z,38.28
2019-05-10T04:40:29.491Z,36.98
2019-05-10T04:45:34.175Z,42.93
2019-05-10T04:50:38.905Z,24.57
2019-05-10T04:55:43.594Z,23.10
2019-05-10T05:00:48.241Z,24.87
2019-05-10T05:05:52.764Z,22.27
2019-05-10T05:10:57.852Z,20.40
2019-05-10T05:16:02.593Z,20.62
2019-05-10T05:21:07.213Z,23.90
2019-05-10T05:26:11.729Z,22.05
2019-05-10T05:31:16.292Z,17.73
2019-05-10T05:36:20.961Z,11.35
2019-05-10T05:41:25.655Z,10.98
2019-05-10T05:46:30.265Z,6.30
2019-05-10T05:51:34.881Z,6.60
2019-05-10T05:56:39.458Z,7.53
2019-05-10T06:01:44.721Z,4.97
2019-05-10T06:06:53.696Z,6.58
2019-05-10T06:11:55.949Z,4.35
2019-05-10T06:17:00.475Z,7.05
2019-05-10T06:22:07.010Z,4.70
2019-05-10T06:27:11.438Z,4.30
2019-05-10T06:32:16.039Z,4.15
2019-05-10T06:37:20.683Z,4.45
2019-05-10T06:42:28.879Z,6.58
2019-05-10T06:47:31.737Z,8.38
2019-05-10T06:52:36.319Z,6.75
2019-05-10T06:57:40.876Z,6.97
2019-05-10T07:02:46.571Z,6.95
2019-05-10T07:07:51.146Z,4.78
2019-05-10T07:12:57.026Z,6.15
2019-05-10T07:18:02.072Z,4.58
2019-05-10T07:23:07.922Z,5.78
2019-05-10T07:28:15.781Z,4.60
2019-05-10T07:33:20.414Z,4.10
2019-05-10T07:38:30.673Z,3.15
2019-05-10T07:43:31.241Z,9.25
2019-05-10T07:48:40.955Z,2.77
2019-05-10T07:53:42.159Z,3.75
2019-05-10T07:58:46.794Z,3.90
2019-05-10T08:03:52.482Z,6.83
2019-05-10T08:09:01.826Z,5.78
2019-05-10T08:14:08.925Z,5.50
2019-05-10T08:19:12.229Z,4.47
2019-05-10T08:24:16.878Z,5.05
2019-05-10T08:29:22.526Z,4.10
2019-05-10T08:34:29.086Z,2.40
2019-05-10T08:39:43.905Z,4.33
2019-05-10T08:44:39.792Z,3.90
2019-05-10T08:49:56.997Z,7.53
2019-05-10T08:54:55.026Z,2.50
2019-05-10T09:00:06.981Z,6.95
2019-05-10T09:05:04.886Z,6.42
2019-05-10T09:10:09.899Z,3.65
2019-05-10T09:15:14.854Z,3.10
2019-05-10T09:20:25.948Z,4.42
2019-05-10T09:25:29.525Z,5.37
2019-05-10T09:30:35.493Z,6.72
2019-05-10T09:35:47.048Z,2.85
2019-05-10T09:40:53.003Z,4.60
2019-05-10T09:45:53.939Z,7.67
2019-05-10T09:51:03.414Z,5.87
2019-05-10T09:56:05.088Z,4.17
2019-05-10T10:01:17.802Z,4.60
2019-05-10T10:06:17.174Z,4.58
2019-05-10T10:11:21.795Z,5.00
2019-05-10T10:16:28.202Z,3.60
2019-05-10T10:21:35.474Z,5.55
2019-05-10T10:26:39.136Z,5.85
2019-05-10T10:31:51.523Z,6.47
2019-05-10T10:36:50.134Z,5.28
2019-05-10T10:41:56.931Z,6.78
2019-05-10T10:47:01.350Z,5.80
2019-05-10T10:52:11.423Z,4.47
2019-05-10T10:57:12.311Z,3.37
2019-05-10T11:02:32.112Z,5.05
2019-05-10T11:07:23.332Z,11.35
2019-05-10T11:12:28.132Z,5.28
2019-05-10T11:17:32.709Z,5.20
2019-05-10T11:22:42.095Z,6.42
2019-05-10T11:27:47.615Z,17.98
2019-05-10T11:32:50.151Z,7.00
2019-05-10T11:37:54.809Z,3.17
2019-05-10T11:43:01.523Z,5.62
2019-05-10T11:48:05.865Z,3.35
2019-05-10T11:53:13.293Z,5.17
2019-05-10T11:58:16.700Z,5.53
2019-05-10T12:03:23.502Z,5.70
2019-05-10T12:08:27.736Z,5.22
2019-05-10T12:13:32.823Z,3.05
2019-05-10T12:18:46.309Z,4.10
2019-05-10T12:23:50.382Z,2.98
2019-05-10T12:28:51.165Z,3.20
2019-05-10T12:34:02.531Z,3.62
2019-05-10T12:39:04.715Z,1.87
2019-05-10T12:44:11.232Z,2.62
2019-05-10T12:49:15.851Z,2.60
2019-05-10T12:54:23.781Z,3.15
2019-05-10T12:59:29.634Z,1.75
2019-05-10T13:04:40.578Z,1.35
2019-05-10T13:09:40.928Z,4.00
2019-05-10T13:14:49.791Z,6.47
2019-05-10T13:19:57.794Z,1.85
2019-05-10T13:24:59.674Z,4.50
2019-05-10T13:30:05.588Z,5.47
2019-05-10T13:35:10.494Z,7.05
2019-05-10T13:40:16.811Z,2.98
2019-05-10T13:45:21.638Z,3.87
2019-05-10T13:50:28.100Z,2.40
2019-05-10T13:55:33.834Z,6.20
2019-05-10T14:00:38.531Z,3.75
2019-05-10T14:05:43.312Z,6.62
2019-05-10T14:10:49.580Z,3.30
2019-05-10T14:15:54.514Z,2.87
2019-05-10T14:20:58.972Z,5.35
2019-05-10T14:26:03.700Z,6.05
2019-05-10T14:31:08.452Z,3.80
2019-05-10T14:36:13.093Z,5.87
2019-05-10T14:41:20.914Z,3.25
2019-05-10T14:46:25.570Z,3.52
2019-05-10T14:51:44.171Z,4.65
2019-05-10T14:56:36.488Z,4.37
2019-05-10T15:01:43.041Z,2.95
2019-05-10T15:06:47.277Z,6.33
2019-05-10T15:11:51.937Z,4.75
2019-05-10T15:16:56.501Z,4.12
2019-05-10T15:22:01.089Z,4.20
2019-05-10T15:27:05.784Z,14.53
2019-05-10T15:32:10.640Z,6.92
2019-05-10T15:37:17.595Z,5.85
2019-05-10T15:42:22.054Z,5.50
2019-05-10T15:47:26.867Z,7.35
2019-05-10T15:52:31.576Z,2.10
2019-05-10T15:57:36.294Z,3.25
2019-05-10T16:02:40.996Z,9.53
2019-05-10T16:07:46.569Z,5.22
2019-05-10T16:12:52.148Z,5.75
2019-05-10T16:17:59.710Z,4.03
2019-05-10T16:23:08.767Z,8.50
2019-05-10T16:28:09.417Z,5.42
2019-05-10T16:33:15.606Z,10.18
2019-05-10T16:38:23.098Z,7.87
2019-05-10T16:43:27.573Z,6.45
2019-05-10T16:48:32.201Z,5.87
2019-05-10T16:53:37.792Z,5.22
2019-05-10T16:58:47.709Z,6.33
2019-05-10T17:03:51.226Z,10.65
2019-05-10T17:08:55.839Z,15.20
2019-05-10T17:14:01.619Z,6.75
2019-05-10T17:19:06.481Z,7.75
2019-05-10T17:24:10.985Z,5.35
2019-05-10T17:29:15.588Z,7.17
2019-05-10T17:34:27.619Z,7.75
2019-05-10T17:39:32.379Z,5.35
2019-05-10T17:44:32.830Z,7.35
2019-05-10T17:49:37.479Z,9.15
2019-05-10T17:54:42.161Z,7.12
2019-05-10T17:59:53.084Z,8.18
2019-05-10T18:04:53.841Z,8.93
2019-05-10T18:09:58.430Z,6.72
2019-05-10T18:15:04.983Z,9.30
2019-05-10T18:20:10.486Z,7.87
2019-05-10T18:25:20.401Z,10.20
2019-05-10T18:30:22.401Z,7.53
2019-05-10T18:35:27.143Z,8.20
2019-05-10T18:40:32.190Z,9.40
2019-05-10T18:45:39.001Z,10.05
2019-05-10T18:50:45.133Z,7.33
2019-05-10T18:55:49.943Z,7.70
2019-05-10T19:00:56.133Z,7.05
2019-05-10T19:06:04.046Z,6.05
2019-05-10T19:11:07.381Z,6.03
2019-05-10T19:16:12.560Z,5.30
2019-05-10T19:21:17.238Z,7.97
2019-05-10T19:26:23.772Z,7.17
2019-05-10T19:31:31.675Z,7.62
2019-05-10T19:36:35.706Z,6.35
2019-05-10T19:42:04.427Z,7.78
2019-05-10T19:47:15.317Z,9.60
2019-05-10T19:52:14.309Z,9.38
2019-05-10T19:57:19.068Z,10.25
2019-05-10T20:02:23.684Z,7.42
2019-05-10T20:07:44.066Z,7.50
2019-05-10T20:12:53.861Z,5.62
2019-05-10T20:17:58.576Z,8.35
2019-05-10T20:23:03.341Z,6.67
2019-05-10T20:28:07.898Z,8.43
2019-05-10T20:33:12.629Z,5.62
2019-05-10T20:38:17.253Z,6.10
2019-05-10T20:43:21.946Z,4.40
2019-05-10T20:48:26.534Z,5.12
2019-05-10T20:53:31.277Z,7.80
2019-05-10T20:58:35.857Z,9.10
2019-05-10T21:03:40.498Z,5.53
2019-05-10T21:08:45.066Z,8.40
2019-05-10T21:13:49.834Z,4.10
2019-05-10T21:18:54.579Z,6.33
2019-05-10T21:23:59.120Z,6.17
2019-05-10T21:29:04.485Z,3.70
2019-05-10T21:34:10.245Z,3.87
2019-05-10T21:39:15.084Z,5.35
2019-05-10T21:44:19.733Z,3.87
2019-05-10T21:49:24.457Z,3.83
2019-05-10T21:54:29.147Z,3.90
2019-05-10T21:59:33.796Z,7.22
2019-05-10T22:04:38.280Z,4.78
2019-05-10T22:09:42.991Z,4.28
2019-05-10T22:14:47.482Z,3.77
2019-05-10T22:19:52.050Z,3.67
2019-05-10T22:24:56.774Z,4.10
2019-05-10T22:30:01.262Z,7.20
2019-05-10T22:35:07.179Z,5.78
2019-05-10T22:40:11.882Z,4.53
2019-05-10T22:45:16.595Z,3.45
2019-05-10T22:50:21.241Z,3.87
2019-05-10T22:55:25.916Z,4.95
2019-05-10T23:00:30.727Z,2.42
2019-05-10T23:05:35.365Z,3.40
2019-05-10T23:10:40.145Z,3.27
2019-05-10T23:15:44.717Z,4.22
2019-05-10T23:20:49.291Z,4.55
2019-05-10T23:25:53.909Z,3.15
2019-05-10T23:30:58.451Z,3.17
2019-05-10T23:36:03.154Z,4.90
2019-05-10T23:41:07.931Z,6.00
2019-05-10T23:46:12.717Z,4.20
2019-05-10T23:51:17.518Z,4.10
2019-05-10T23:56:22.434Z,3.52
